RWZ4325 UUBW-UDYZ
Flight info
| Callsign | RWZ4325 |
|---|---|
| Flight time | 4h 29m |
| Altitude | 33000 |
| Route | N0450F330 TOGMO M56 ABAGI B105 NIMTA/K0851F340 B105 NATIT DCT MOLED N50 LIDUS G242 ZG DCT ITAKA DCT KUDAS DCT MKL DCT KUFAN N61 LAGAS DCT OGEVI T918 TIBLO |
| Aircraft | T204/M-VGDW/C |
Departure
| Time | 2026-04-29 08:49 |
|---|---|
| Airport | Zhukovsky International Airport (UUBW) |
Arrival
| Time | 2026-04-29 13:19 |
|---|---|
| Airport | Zvartnots International Airport (UDYZ) |
| Time | Latitude | Longitude | Altitude | Speed | Heading |
|---|---|---|---|---|---|
| 2026-04-29 08:07 | 55.56235 | 38.12278 | 381 ft | 0 kts | 223° |
| 2026-04-29 08:31 | 55.56240 | 38.12286 | 381 ft | 2 kts | 223° |
| 2026-04-29 08:31 | 55.56251 | 38.12304 | 381 ft | 2 kts | 223° |
| 2026-04-29 08:31 | 55.56262 | 38.12322 | 381 ft | 2 kts | 223° |
| 2026-04-29 08:32 | 55.56274 | 38.12338 | 381 ft | 2 kts | 198° |
| 2026-04-29 08:32 | 55.56288 | 38.12340 | 381 ft | 2 kts | 169° |
| 2026-04-29 08:32 | 55.56301 | 38.12329 | 381 ft | 2 kts | 139° |
| 2026-04-29 08:32 | 55.56310 | 38.12309 | 381 ft | 2 kts | 129° |
| 2026-04-29 08:33 | 55.56320 | 38.12289 | 381 ft | 2 kts | 131° |
| 2026-04-29 08:33 | 55.56324 | 38.12280 | 381 ft | 1 kts | 130° |
| 2026-04-29 08:33 | 55.56327 | 38.12273 | 381 ft | 0 kts | 131° |
| 2026-04-29 08:33 | 55.56330 | 38.12266 | 381 ft | 0 kts | 130° |
| 2026-04-29 08:34 | 55.56334 | 38.12260 | 381 ft | 0 kts | 130° |
| 2026-04-29 08:34 | 55.56337 | 38.12254 | 381 ft | 0 kts | 130° |
| 2026-04-29 08:34 | 55.56340 | 38.12246 | 381 ft | 0 kts | 130° |
| 2026-04-29 08:34 | 55.56344 | 38.12239 | 381 ft | 0 kts | 130° |
| 2026-04-29 08:35 | 55.56344 | 38.12238 | 381 ft | 0 kts | 130° |
| 2026-04-29 08:43 | 55.56343 | 38.12242 | 381 ft | 2 kts | 130° |
| 2026-04-29 08:43 | 55.56296 | 38.12336 | 381 ft | 15 kts | 131° |
| 2026-04-29 08:43 | 55.56200 | 38.12529 | 381 ft | 25 kts | 131° |
| 2026-04-29 08:43 | 55.56085 | 38.12803 | 381 ft | 30 kts | 120° |
| 2026-04-29 08:44 | 55.55938 | 38.13113 | 381 ft | 35 kts | 131° |
| 2026-04-29 08:44 | 55.55759 | 38.13463 | 381 ft | 40 kts | 131° |
| 2026-04-29 08:44 | 55.55563 | 38.13862 | 381 ft | 45 kts | 131° |
| 2026-04-29 08:44 | 55.55341 | 38.14302 | 381 ft | 50 kts | 131° |
| 2026-04-29 08:45 | 55.55094 | 38.14787 | 382 ft | 54 kts | 131° |
| 2026-04-29 08:45 | 55.54859 | 38.15250 | 382 ft | 46 kts | 132° |
| 2026-04-29 08:45 | 55.54659 | 38.15659 | 382 ft | 43 kts | 133° |
| 2026-04-29 08:45 | 55.54460 | 38.16037 | 382 ft | 40 kts | 133° |
| 2026-04-29 08:46 | 55.54289 | 38.16390 | 382 ft | 30 kts | 117° |
| 2026-04-29 08:46 | 55.54348 | 38.16619 | 382 ft | 18 kts | 41° |
| 2026-04-29 08:46 | 55.54447 | 38.16642 | 382 ft | 15 kts | 314° |
| 2026-04-29 08:46 | 55.54472 | 38.16594 | 382 ft | 0 kts | 312° |
| 2026-04-29 08:47 | 55.54535 | 38.16468 | 382 ft | 24 kts | 312° |
| 2026-04-29 08:47 | 55.54586 | 38.16368 | 382 ft | 0 kts | 311° |
| 2026-04-29 08:48 | 55.54586 | 38.16367 | 382 ft | 0 kts | 310° |
| 2026-04-29 08:48 | 55.54604 | 38.16330 | 382 ft | 24 kts | 309° |
| 2026-04-29 08:49 | 55.54919 | 38.15705 | 382 ft | 110 kts | 311° |
| 2026-04-29 08:49 | 55.55595 | 38.14381 | 514 ft | 169 kts | 310° |
| 2026-04-29 08:49 | 55.56429 | 38.12790 | 890 ft | 183 kts | 313° |
| 2026-04-29 08:49 | 55.57329 | 38.11143 | 1238 ft | 196 kts | 313° |
| 2026-04-29 08:50 | 55.58280 | 38.09380 | 1925 ft | 199 kts | 314° |
| 2026-04-29 08:50 | 55.59049 | 38.07403 | 2600 ft | 204 kts | 285° |
| 2026-04-29 08:50 | 55.58789 | 38.04844 | 3067 ft | 234 kts | 244° |
| 2026-04-29 08:50 | 55.57760 | 38.02423 | 3658 ft | 254 kts | 233° |
| 2026-04-29 08:51 | 55.56588 | 38.00092 | 4509 ft | 261 kts | 228° |
| 2026-04-29 08:51 | 55.55058 | 37.98336 | 5341 ft | 273 kts | 204° |
| 2026-04-29 08:51 | 55.53195 | 37.97702 | 6224 ft | 281 kts | 184° |
| 2026-04-29 08:51 | 55.51241 | 37.98093 | 7088 ft | 287 kts | 165° |
| 2026-04-29 08:52 | 55.49421 | 37.99471 | 7968 ft | 289 kts | 154° |
| 2026-04-29 08:52 | 55.47633 | 38.01033 | 8823 ft | 291 kts | 153° |
| 2026-04-29 08:52 | 55.45829 | 38.02689 | 9632 ft | 295 kts | 152° |
| 2026-04-29 08:52 | 55.44029 | 38.04345 | 10486 ft | 296 kts | 152° |
| 2026-04-29 08:53 | 55.42197 | 38.06041 | 11219 ft | 300 kts | 152° |
| 2026-04-29 08:53 | 55.40351 | 38.07743 | 11911 ft | 305 kts | 152° |
| 2026-04-29 08:53 | 55.38475 | 38.09484 | 12615 ft | 309 kts | 150° |
| 2026-04-29 08:53 | 55.36556 | 38.11275 | 13239 ft | 315 kts | 152° |
| 2026-04-29 08:54 | 55.34612 | 38.13078 | 13915 ft | 318 kts | 150° |
| 2026-04-29 08:54 | 55.32671 | 38.14887 | 14585 ft | 321 kts | 150° |
| 2026-04-29 08:54 | 55.30709 | 38.16711 | 15210 ft | 325 kts | 150° |
| 2026-04-29 08:54 | 55.28692 | 38.18588 | 15766 ft | 331 kts | 150° |
| 2026-04-29 08:55 | 55.26660 | 38.20477 | 16383 ft | 335 kts | 150° |
| 2026-04-29 08:55 | 55.24594 | 38.22398 | 16963 ft | 338 kts | 149° |
| 2026-04-29 08:55 | 55.22510 | 38.24336 | 17545 ft | 342 kts | 149° |
| 2026-04-29 08:55 | 55.20418 | 38.26282 | 18099 ft | 346 kts | 148° |
| 2026-04-29 08:56 | 55.18287 | 38.28267 | 18648 ft | 350 kts | 148° |
| 2026-04-29 08:56 | 55.16140 | 38.30268 | 19191 ft | 354 kts | 148° |
| 2026-04-29 08:56 | 55.13959 | 38.32304 | 19723 ft | 358 kts | 148° |
| 2026-04-29 08:56 | 55.11773 | 38.34351 | 20294 ft | 360 kts | 148° |
| 2026-04-29 08:57 | 55.09558 | 38.36427 | 20856 ft | 362 kts | 147° |
| 2026-04-29 08:57 | 55.07339 | 38.38500 | 21350 ft | 366 kts | 147° |
| 2026-04-29 08:57 | 55.05085 | 38.40605 | 21903 ft | 368 kts | 147° |
| 2026-04-29 08:57 | 55.02823 | 38.42714 | 22372 ft | 373 kts | 147° |
| 2026-04-29 08:58 | 55.00535 | 38.44848 | 22881 ft | 375 kts | 147° |
| 2026-04-29 08:58 | 54.98259 | 38.46971 | 23391 ft | 377 kts | 147° |
| 2026-04-29 08:58 | 54.95960 | 38.49112 | 23869 ft | 380 kts | 147° |
| 2026-04-29 08:58 | 54.93601 | 38.51310 | 24337 ft | 383 kts | 147° |
| 2026-04-29 08:59 | 54.91280 | 38.53479 | 24816 ft | 385 kts | 147° |
| 2026-04-29 08:59 | 54.88901 | 38.55704 | 25236 ft | 388 kts | 147° |
| 2026-04-29 08:59 | 54.86537 | 38.57917 | 25647 ft | 391 kts | 147° |
| 2026-04-29 08:59 | 54.84141 | 38.60157 | 26069 ft | 394 kts | 147° |
| 2026-04-29 09:00 | 54.81710 | 38.62431 | 26605 ft | 393 kts | 147° |
| 2026-04-29 09:00 | 54.79343 | 38.64644 | 27108 ft | 393 kts | 147° |
| 2026-04-29 09:00 | 54.76917 | 38.66913 | 27628 ft | 392 kts | 148° |
| 2026-04-29 09:00 | 54.74546 | 38.69126 | 28152 ft | 390 kts | 148° |
| 2026-04-29 09:01 | 54.72168 | 38.71349 | 28583 ft | 391 kts | 148° |
| 2026-04-29 09:01 | 54.69797 | 38.73565 | 29062 ft | 390 kts | 148° |
| 2026-04-29 09:01 | 54.67423 | 38.75784 | 29521 ft | 390 kts | 148° |
| 2026-04-29 09:01 | 54.65046 | 38.78012 | 29941 ft | 390 kts | 148° |
| 2026-04-29 09:02 | 54.62651 | 38.80262 | 30325 ft | 389 kts | 148° |
| 2026-04-29 09:02 | 54.60284 | 38.82480 | 30672 ft | 390 kts | 149° |
| 2026-04-29 09:02 | 54.57917 | 38.84696 | 31047 ft | 389 kts | 149° |
| 2026-04-29 09:02 | 54.55566 | 38.86896 | 31404 ft | 388 kts | 149° |
| 2026-04-29 09:03 | 54.53218 | 38.89095 | 31664 ft | 385 kts | 149° |
| 2026-04-29 09:03 | 54.50860 | 38.91308 | 31912 ft | 383 kts | 150° |
| 2026-04-29 09:03 | 54.48557 | 38.93473 | 32158 ft | 380 kts | 150° |
| 2026-04-29 09:03 | 54.46239 | 38.95645 | 32342 ft | 380 kts | 151° |
| 2026-04-29 09:04 | 54.43910 | 38.97821 | 32531 ft | 379 kts | 151° |
| 2026-04-29 09:04 | 54.41677 | 39.00148 | 32687 ft | 378 kts | 140° |
| 2026-04-29 09:04 | 54.39867 | 39.03370 | 32838 ft | 380 kts | 126° |
| 2026-04-29 09:05 | 54.37113 | 39.11076 | 32874 ft | 378 kts | 115° |
| 2026-04-29 09:05 | 54.34932 | 39.19215 | 32896 ft | 373 kts | 112° |
| 2026-04-29 09:06 | 54.32915 | 39.27343 | 32882 ft | 373 kts | 111° |
| 2026-04-29 09:06 | 54.30893 | 39.35522 | 32890 ft | 374 kts | 111° |
| 2026-04-29 09:07 | 54.28852 | 39.43709 | 32903 ft | 375 kts | 112° |
| 2026-04-29 09:07 | 54.26819 | 39.51867 | 32877 ft | 375 kts | 111° |
| 2026-04-29 09:08 | 54.24784 | 39.60055 | 32879 ft | 375 kts | 111° |
| 2026-04-29 09:08 | 54.22755 | 39.68266 | 32864 ft | 375 kts | 112° |
| 2026-04-29 09:09 | 54.20756 | 39.76344 | 32874 ft | 377 kts | 112° |
| 2026-04-29 09:09 | 54.18723 | 39.84582 | 32868 ft | 377 kts | 112° |
| 2026-04-29 09:10 | 54.16714 | 39.92768 | 32876 ft | 377 kts | 112° |
| 2026-04-29 09:10 | 54.14696 | 40.01011 | 32874 ft | 377 kts | 112° |
| 2026-04-29 09:11 | 54.12682 | 40.09238 | 32884 ft | 378 kts | 112° |
| 2026-04-29 09:11 | 54.10898 | 40.17615 | 32889 ft | 379 kts | 106° |
| 2026-04-29 09:12 | 54.09419 | 40.26197 | 32888 ft | 379 kts | 106° |
| 2026-04-29 09:12 | 54.07905 | 40.34764 | 32882 ft | 379 kts | 106° |
| 2026-04-29 09:13 | 54.06387 | 40.43317 | 32883 ft | 380 kts | 106° |
| 2026-04-29 09:13 | 54.04862 | 40.51917 | 32878 ft | 381 kts | 107° |
| 2026-04-29 09:14 | 54.03347 | 40.60466 | 32885 ft | 381 kts | 107° |
| 2026-04-29 09:14 | 54.01822 | 40.69070 | 32885 ft | 381 kts | 107° |
| 2026-04-29 09:15 | 54.00306 | 40.77670 | 32878 ft | 380 kts | 107° |
| 2026-04-29 09:15 | 53.98803 | 40.86237 | 32873 ft | 380 kts | 107° |
| 2026-04-29 09:16 | 53.97304 | 40.94833 | 32875 ft | 381 kts | 107° |
| 2026-04-29 09:16 | 53.95815 | 41.03394 | 32879 ft | 381 kts | 107° |
| 2026-04-29 09:17 | 53.94370 | 41.12085 | 32887 ft | 382 kts | 107° |
| 2026-04-29 09:17 | 53.92934 | 41.20703 | 32878 ft | 381 kts | 107° |
| 2026-04-29 09:18 | 53.91488 | 41.29329 | 32885 ft | 382 kts | 107° |
| 2026-04-29 09:18 | 53.90041 | 41.37979 | 32886 ft | 383 kts | 107° |
| 2026-04-29 09:19 | 53.88594 | 41.46665 | 32893 ft | 384 kts | 107° |
| 2026-04-29 09:19 | 53.87152 | 41.55342 | 32876 ft | 383 kts | 107° |
| 2026-04-29 09:20 | 53.85722 | 41.63996 | 32889 ft | 383 kts | 107° |
| 2026-04-29 09:20 | 53.84293 | 41.72648 | 32887 ft | 383 kts | 107° |
| 2026-04-29 09:20 | 53.83573 | 41.77005 | 32929 ft | 395 kts | 108° |
| 2026-04-29 09:21 | 53.82792 | 41.81543 | 32953 ft | 414 kts | 108° |
| 2026-04-29 09:21 | 53.81953 | 41.86304 | 32973 ft | 433 kts | 108° |
| 2026-04-29 09:21 | 53.81078 | 41.91256 | 32965 ft | 443 kts | 108° |
| 2026-04-29 09:22 | 53.79315 | 42.01228 | 32910 ft | 442 kts | 108° |
| 2026-04-29 09:22 | 53.77573 | 42.11084 | 32911 ft | 441 kts | 108° |
| 2026-04-29 09:23 | 53.75825 | 42.20990 | 32905 ft | 441 kts | 108° |
| 2026-04-29 09:23 | 53.74086 | 42.30892 | 32909 ft | 441 kts | 108° |
| 2026-04-29 09:24 | 53.72357 | 42.40789 | 32909 ft | 442 kts | 108° |
| 2026-04-29 09:24 | 53.70635 | 42.50683 | 32903 ft | 442 kts | 108° |
| 2026-04-29 09:25 | 53.68210 | 42.60097 | 32897 ft | 435 kts | 130° |
| 2026-04-29 09:25 | 53.64230 | 42.67593 | 32904 ft | 430 kts | 141° |
| 2026-04-29 09:26 | 53.59357 | 42.73109 | 32919 ft | 419 kts | 157° |
| 2026-04-29 09:26 | 53.54144 | 42.77277 | 32911 ft | 417 kts | 160° |
| 2026-04-29 09:27 | 53.48783 | 42.81210 | 32959 ft | 437 kts | 161° |
| 2026-04-29 09:27 | 53.45921 | 42.83272 | 32969 ft | 456 kts | 161° |
| 2026-04-29 09:27 | 53.42969 | 42.85397 | 32931 ft | 465 kts | 161° |
| 2026-04-29 09:28 | 53.37055 | 42.89643 | 32921 ft | 464 kts | 161° |
| 2026-04-29 09:28 | 53.31137 | 42.93884 | 32917 ft | 463 kts | 161° |
| 2026-04-29 09:29 | 53.25273 | 42.98090 | 32919 ft | 463 kts | 161° |
| 2026-04-29 09:29 | 53.16446 | 43.04414 | 32928 ft | 461 kts | 161° |
| 2026-04-29 09:30 | 53.10575 | 43.08664 | 32924 ft | 461 kts | 161° |
| 2026-04-29 09:30 | 53.04728 | 43.12901 | 32925 ft | 461 kts | 161° |
| 2026-04-29 09:31 | 52.98864 | 43.17081 | 32925 ft | 460 kts | 162° |
| 2026-04-29 09:31 | 52.93021 | 43.21223 | 32935 ft | 460 kts | 162° |
| 2026-04-29 09:32 | 52.87130 | 43.25389 | 32942 ft | 458 kts | 162° |
| 2026-04-29 09:32 | 52.81280 | 43.29526 | 32937 ft | 459 kts | 162° |
| 2026-04-29 09:33 | 52.75467 | 43.33637 | 32940 ft | 458 kts | 162° |
| 2026-04-29 09:33 | 52.69611 | 43.37784 | 32936 ft | 457 kts | 162° |
| 2026-04-29 09:34 | 52.63809 | 43.41884 | 32948 ft | 456 kts | 162° |
| 2026-04-29 09:34 | 52.57986 | 43.46009 | 32937 ft | 457 kts | 162° |
| 2026-04-29 09:35 | 52.52203 | 43.50103 | 32936 ft | 455 kts | 162° |
| 2026-04-29 09:35 | 52.46417 | 43.54203 | 32940 ft | 455 kts | 162° |
| 2026-04-29 09:36 | 52.40615 | 43.58308 | 32953 ft | 456 kts | 162° |
| 2026-04-29 09:36 | 52.34869 | 43.62388 | 32953 ft | 454 kts | 162° |
| 2026-04-29 09:37 | 52.29085 | 43.66484 | 32935 ft | 454 kts | 163° |
| 2026-04-29 09:37 | 52.23292 | 43.70597 | 32936 ft | 453 kts | 163° |
| 2026-04-29 09:38 | 52.17571 | 43.74664 | 32949 ft | 452 kts | 163° |
| 2026-04-29 09:38 | 52.11821 | 43.78739 | 32949 ft | 452 kts | 163° |
| 2026-04-29 09:39 | 52.06106 | 43.82797 | 32944 ft | 451 kts | 164° |
| 2026-04-29 09:39 | 52.00380 | 43.86860 | 32950 ft | 451 kts | 164° |
| 2026-04-29 09:40 | 51.94669 | 43.90915 | 32950 ft | 450 kts | 164° |
| 2026-04-29 09:40 | 51.88927 | 43.94981 | 32961 ft | 451 kts | 164° |
| 2026-04-29 09:41 | 51.83210 | 43.99041 | 32963 ft | 450 kts | 163° |
| 2026-04-29 09:41 | 51.77527 | 44.03081 | 32979 ft | 449 kts | 163° |
| 2026-04-29 09:42 | 51.71821 | 44.07135 | 32980 ft | 449 kts | 163° |
| 2026-04-29 09:42 | 51.66119 | 44.11192 | 32984 ft | 447 kts | 163° |
| 2026-04-29 09:43 | 51.60485 | 44.15202 | 32992 ft | 447 kts | 163° |
| 2026-04-29 09:43 | 51.54790 | 44.19252 | 32984 ft | 446 kts | 163° |
| 2026-04-29 09:44 | 51.49157 | 44.23263 | 32997 ft | 447 kts | 163° |
| 2026-04-29 09:44 | 51.43483 | 44.27305 | 33001 ft | 446 kts | 163° |
| 2026-04-29 09:45 | 51.37832 | 44.31323 | 32979 ft | 446 kts | 163° |
| 2026-04-29 09:45 | 51.32195 | 44.35341 | 32992 ft | 444 kts | 163° |
| 2026-04-29 09:46 | 51.26575 | 44.39342 | 33000 ft | 445 kts | 163° |
| 2026-04-29 09:46 | 51.20952 | 44.43345 | 32995 ft | 443 kts | 163° |
| 2026-04-29 09:47 | 51.15199 | 44.45878 | 32982 ft | 421 kts | 185° |
| 2026-04-29 09:47 | 51.09334 | 44.46024 | 33000 ft | 419 kts | 187° |
| 2026-04-29 09:48 | 51.03577 | 44.45705 | 32995 ft | 417 kts | 189° |
| 2026-04-29 09:48 | 50.97780 | 44.45235 | 33004 ft | 417 kts | 189° |
| 2026-04-29 09:49 | 50.92031 | 44.44721 | 32998 ft | 416 kts | 189° |
| 2026-04-29 09:49 | 50.86273 | 44.44199 | 33011 ft | 416 kts | 189° |
| 2026-04-29 09:50 | 50.80501 | 44.43677 | 33005 ft | 415 kts | 189° |
| 2026-04-29 09:50 | 50.74765 | 44.43157 | 33011 ft | 415 kts | 189° |
| 2026-04-29 09:51 | 50.69046 | 44.42629 | 33010 ft | 413 kts | 189° |
| 2026-04-29 09:51 | 50.63300 | 44.42116 | 33011 ft | 413 kts | 189° |
| 2026-04-29 09:52 | 50.57593 | 44.41589 | 33016 ft | 414 kts | 189° |
| 2026-04-29 09:52 | 50.51862 | 44.41074 | 33014 ft | 413 kts | 189° |
| 2026-04-29 09:53 | 50.46137 | 44.40551 | 33022 ft | 414 kts | 189° |
| 2026-04-29 09:53 | 50.40398 | 44.40032 | 33016 ft | 413 kts | 189° |
| 2026-04-29 09:54 | 50.34681 | 44.39509 | 33015 ft | 412 kts | 189° |
| 2026-04-29 09:54 | 50.28962 | 44.38984 | 33008 ft | 412 kts | 189° |
| 2026-04-29 09:55 | 50.23265 | 44.38467 | 33012 ft | 413 kts | 189° |
| 2026-04-29 09:55 | 50.17584 | 44.37953 | 33020 ft | 411 kts | 189° |
| 2026-04-29 09:56 | 50.11879 | 44.37432 | 33024 ft | 411 kts | 189° |
| 2026-04-29 09:56 | 50.06176 | 44.36915 | 33016 ft | 412 kts | 189° |
| 2026-04-29 09:57 | 50.00490 | 44.36399 | 33018 ft | 412 kts | 189° |
| 2026-04-29 09:57 | 49.94787 | 44.35879 | 33022 ft | 412 kts | 189° |
| 2026-04-29 09:58 | 49.89088 | 44.35354 | 33026 ft | 410 kts | 189° |
| 2026-04-29 09:58 | 49.83366 | 44.34837 | 33035 ft | 410 kts | 189° |
| 2026-04-29 09:59 | 49.77687 | 44.34322 | 33029 ft | 410 kts | 189° |
| 2026-04-29 09:59 | 49.72021 | 44.33804 | 33028 ft | 409 kts | 189° |
| 2026-04-29 10:00 | 49.66375 | 44.33292 | 33031 ft | 409 kts | 189° |
| 2026-04-29 10:00 | 49.60710 | 44.32777 | 33031 ft | 408 kts | 189° |
| 2026-04-29 10:01 | 49.57845 | 44.32851 | 32986 ft | 419 kts | 178° |
| 2026-04-29 10:01 | 49.55005 | 44.34050 | 33053 ft | 428 kts | 168° |
| 2026-04-29 10:01 | 49.49419 | 44.37225 | 33026 ft | 433 kts | 166° |
| 2026-04-29 10:02 | 49.43832 | 44.40654 | 33029 ft | 432 kts | 166° |
| 2026-04-29 10:02 | 49.38297 | 44.44114 | 33024 ft | 432 kts | 165° |
| 2026-04-29 10:03 | 49.32745 | 44.47597 | 33016 ft | 432 kts | 165° |
| 2026-04-29 10:03 | 49.27210 | 44.51072 | 33016 ft | 430 kts | 165° |
| 2026-04-29 10:04 | 49.21717 | 44.54519 | 33022 ft | 431 kts | 165° |
| 2026-04-29 10:04 | 49.16154 | 44.58012 | 33027 ft | 431 kts | 165° |
| 2026-04-29 10:05 | 49.10660 | 44.61468 | 33021 ft | 431 kts | 165° |
| 2026-04-29 10:05 | 49.05132 | 44.64937 | 33026 ft | 430 kts | 165° |
| 2026-04-29 10:06 | 48.99612 | 44.68406 | 33011 ft | 429 kts | 166° |
| 2026-04-29 10:06 | 48.94115 | 44.71854 | 33017 ft | 430 kts | 166° |
| 2026-04-29 10:07 | 48.88582 | 44.75336 | 33019 ft | 430 kts | 166° |
| 2026-04-29 10:07 | 48.83078 | 44.78867 | 33014 ft | 435 kts | 162° |
| 2026-04-29 10:08 | 48.77807 | 44.83331 | 33048 ft | 436 kts | 159° |
| 2026-04-29 10:08 | 48.72502 | 44.87802 | 33032 ft | 437 kts | 159° |
| 2026-04-29 10:09 | 48.67191 | 44.92209 | 33029 ft | 437 kts | 159° |
| 2026-04-29 10:09 | 48.61900 | 44.96577 | 33025 ft | 436 kts | 160° |
| 2026-04-29 10:10 | 48.56575 | 45.00965 | 33027 ft | 436 kts | 159° |
| 2026-04-29 10:10 | 48.51267 | 45.05339 | 33023 ft | 436 kts | 159° |
| 2026-04-29 10:11 | 48.45965 | 45.09715 | 33025 ft | 435 kts | 159° |
| 2026-04-29 10:11 | 48.40693 | 45.14067 | 33027 ft | 436 kts | 159° |
| 2026-04-29 10:12 | 48.35366 | 45.18465 | 33023 ft | 436 kts | 159° |
| 2026-04-29 10:12 | 48.30078 | 45.22831 | 33022 ft | 436 kts | 159° |
| 2026-04-29 10:13 | 48.24795 | 45.27196 | 33024 ft | 435 kts | 159° |
| 2026-04-29 10:13 | 48.19489 | 45.31581 | 33024 ft | 435 kts | 159° |
| 2026-04-29 10:14 | 48.14207 | 45.35945 | 33022 ft | 435 kts | 159° |
| 2026-04-29 10:14 | 48.08919 | 45.40316 | 33025 ft | 436 kts | 158° |
| 2026-04-29 10:15 | 48.03648 | 45.44674 | 33023 ft | 435 kts | 158° |
| 2026-04-29 10:15 | 47.98349 | 45.49062 | 33023 ft | 436 kts | 158° |
| 2026-04-29 10:16 | 47.93962 | 45.52689 | 33023 ft | 436 kts | 158° |
| 2026-04-29 10:16 | 47.87772 | 45.57812 | 33033 ft | 436 kts | 158° |
| 2026-04-29 10:17 | 47.82493 | 45.62190 | 33031 ft | 436 kts | 158° |
| 2026-04-29 10:17 | 47.77211 | 45.66569 | 33026 ft | 435 kts | 158° |
| 2026-04-29 10:18 | 47.71931 | 45.70947 | 33020 ft | 435 kts | 158° |
| 2026-04-29 10:18 | 47.66677 | 45.75297 | 33023 ft | 435 kts | 158° |
| 2026-04-29 10:19 | 47.61411 | 45.79664 | 33022 ft | 434 kts | 158° |
| 2026-04-29 10:19 | 47.56152 | 45.84026 | 33022 ft | 435 kts | 158° |
| 2026-04-29 10:20 | 47.50883 | 45.88405 | 33021 ft | 435 kts | 158° |
| 2026-04-29 10:20 | 47.45613 | 45.92775 | 33021 ft | 435 kts | 157° |
| 2026-04-29 10:21 | 47.40377 | 45.97124 | 33023 ft | 434 kts | 157° |
| 2026-04-29 10:21 | 47.35108 | 46.01506 | 33023 ft | 435 kts | 157° |
| 2026-04-29 10:22 | 47.29873 | 46.05856 | 33022 ft | 434 kts | 157° |
| 2026-04-29 10:22 | 47.24616 | 46.10227 | 33023 ft | 433 kts | 157° |
| 2026-04-29 10:23 | 47.19395 | 46.14566 | 33021 ft | 433 kts | 157° |
| 2026-04-29 10:23 | 47.14171 | 46.18915 | 33024 ft | 432 kts | 157° |
| 2026-04-29 10:24 | 47.08956 | 46.23254 | 33021 ft | 432 kts | 156° |
| 2026-04-29 10:24 | 47.04356 | 46.29044 | 33032 ft | 453 kts | 134° |
| 2026-04-29 10:25 | 47.00669 | 46.36544 | 33008 ft | 457 kts | 131° |
| 2026-04-29 10:25 | 46.97152 | 46.44285 | 33014 ft | 458 kts | 130° |
| 2026-04-29 10:26 | 46.93703 | 46.52050 | 33018 ft | 457 kts | 129° |
| 2026-04-29 10:26 | 46.90274 | 46.59818 | 33019 ft | 457 kts | 129° |
| 2026-04-29 10:27 | 46.85114 | 46.71540 | 33025 ft | 455 kts | 130° |
| 2026-04-29 10:28 | 46.81717 | 46.79275 | 33023 ft | 454 kts | 130° |
| 2026-04-29 10:28 | 46.78328 | 46.86995 | 33024 ft | 455 kts | 130° |
| 2026-04-29 10:29 | 46.74936 | 46.94741 | 33029 ft | 454 kts | 129° |
| 2026-04-29 10:29 | 46.71545 | 47.02497 | 33023 ft | 453 kts | 129° |
| 2026-04-29 10:30 | 46.68193 | 47.10184 | 33028 ft | 453 kts | 129° |
| 2026-04-29 10:30 | 46.64808 | 47.17880 | 33038 ft | 453 kts | 130° |
| 2026-04-29 10:31 | 46.61400 | 47.25561 | 33036 ft | 452 kts | 130° |
| 2026-04-29 10:31 | 46.57983 | 47.33240 | 33040 ft | 453 kts | 129° |
| 2026-04-29 10:32 | 46.54592 | 47.40885 | 33041 ft | 452 kts | 129° |
| 2026-04-29 10:32 | 46.51196 | 47.48543 | 33035 ft | 451 kts | 129° |
| 2026-04-29 10:33 | 46.47813 | 47.56184 | 33036 ft | 452 kts | 129° |
| 2026-04-29 10:33 | 46.44459 | 47.63777 | 33037 ft | 451 kts | 129° |
| 2026-04-29 10:34 | 46.41081 | 47.71427 | 33030 ft | 450 kts | 130° |
| 2026-04-29 10:34 | 46.37732 | 47.79026 | 33034 ft | 449 kts | 129° |
| 2026-04-29 10:35 | 46.34401 | 47.86597 | 33031 ft | 448 kts | 129° |
| 2026-04-29 10:35 | 46.31070 | 47.94178 | 33035 ft | 447 kts | 129° |
| 2026-04-29 10:36 | 46.28146 | 48.02190 | 32986 ft | 463 kts | 113° |
| 2026-04-29 10:36 | 46.27323 | 48.06656 | 33100 ft | 466 kts | 111° |
| 2026-04-29 10:36 | 46.26556 | 48.11234 | 32989 ft | 468 kts | 110° |
| 2026-04-29 10:37 | 46.25126 | 48.20346 | 33023 ft | 468 kts | 109° |
| 2026-04-29 10:37 | 46.23708 | 48.29465 | 33031 ft | 468 kts | 109° |
| 2026-04-29 10:38 | 46.22296 | 48.38582 | 33029 ft | 468 kts | 109° |
| 2026-04-29 10:38 | 46.20885 | 48.47666 | 33022 ft | 464 kts | 111° |
| 2026-04-29 10:38 | 46.19611 | 48.51829 | 32955 ft | 445 kts | 130° |
| 2026-04-29 10:39 | 46.17703 | 48.55261 | 33139 ft | 439 kts | 137° |
| 2026-04-29 10:39 | 46.15637 | 48.58420 | 32968 ft | 434 kts | 143° |
| 2026-04-29 10:39 | 46.13248 | 48.60973 | 33042 ft | 424 kts | 153° |
| 2026-04-29 10:40 | 46.07895 | 48.64217 | 33040 ft | 415 kts | 166° |
| 2026-04-29 10:40 | 46.02348 | 48.66570 | 33014 ft | 414 kts | 169° |
| 2026-04-29 10:41 | 45.96769 | 48.68771 | 33018 ft | 415 kts | 169° |
| 2026-04-29 10:41 | 45.91203 | 48.70933 | 33022 ft | 414 kts | 169° |
| 2026-04-29 10:42 | 45.85625 | 48.73090 | 33048 ft | 414 kts | 169° |
| 2026-04-29 10:42 | 45.80069 | 48.75245 | 33046 ft | 414 kts | 168° |
| 2026-04-29 10:42 | 45.77320 | 48.76312 | 33193 ft | 414 kts | 168° |
| 2026-04-29 10:43 | 45.74534 | 48.77387 | 33152 ft | 415 kts | 169° |
| 2026-04-29 10:43 | 45.71740 | 48.78471 | 33262 ft | 414 kts | 169° |
| 2026-04-29 10:43 | 45.68963 | 48.79546 | 33422 ft | 414 kts | 168° |
| 2026-04-29 10:43 | 45.66197 | 48.80618 | 33545 ft | 415 kts | 168° |
| 2026-04-29 10:44 | 45.63427 | 48.81693 | 33674 ft | 415 kts | 168° |
| 2026-04-29 10:44 | 45.60641 | 48.82770 | 33805 ft | 414 kts | 168° |
| 2026-04-29 10:44 | 45.57864 | 48.83846 | 33932 ft | 415 kts | 168° |
| 2026-04-29 10:44 | 45.55073 | 48.84926 | 34065 ft | 414 kts | 168° |
| 2026-04-29 10:45 | 45.52307 | 48.86002 | 34195 ft | 413 kts | 168° |
| 2026-04-29 10:45 | 45.49550 | 48.87067 | 34321 ft | 413 kts | 168° |
| 2026-04-29 10:45 | 45.46760 | 48.88148 | 34449 ft | 413 kts | 168° |
| 2026-04-29 10:45 | 45.44002 | 48.89219 | 34577 ft | 413 kts | 168° |
| 2026-04-29 10:46 | 45.41225 | 48.90296 | 34692 ft | 414 kts | 168° |
| 2026-04-29 10:46 | 45.38462 | 48.91365 | 34798 ft | 413 kts | 168° |
| 2026-04-29 10:46 | 45.35707 | 48.92436 | 34901 ft | 413 kts | 168° |
| 2026-04-29 10:46 | 45.32939 | 48.93505 | 35003 ft | 414 kts | 168° |
| 2026-04-29 10:47 | 45.30158 | 48.94584 | 35109 ft | 415 kts | 168° |
| 2026-04-29 10:47 | 45.24608 | 48.96733 | 35309 ft | 415 kts | 168° |
| 2026-04-29 10:47 | 45.21819 | 48.97816 | 35412 ft | 415 kts | 168° |
| 2026-04-29 10:48 | 45.19029 | 48.98895 | 35517 ft | 415 kts | 168° |
| 2026-04-29 10:48 | 45.16212 | 48.99986 | 35618 ft | 416 kts | 168° |
| 2026-04-29 10:48 | 45.13447 | 49.01057 | 35711 ft | 418 kts | 168° |
| 2026-04-29 10:49 | 45.07956 | 49.03196 | 35867 ft | 392 kts | 168° |
| 2026-04-29 10:49 | 45.05399 | 49.04192 | 35896 ft | 373 kts | 168° |
| 2026-04-29 10:49 | 45.02931 | 49.05149 | 35933 ft | 364 kts | 168° |
| 2026-04-29 10:50 | 44.98009 | 49.07046 | 36111 ft | 369 kts | 168° |
| 2026-04-29 10:50 | 44.95526 | 49.08010 | 36215 ft | 373 kts | 168° |
| 2026-04-29 10:50 | 44.93046 | 49.08973 | 36316 ft | 374 kts | 168° |
| 2026-04-29 10:51 | 44.88006 | 49.10923 | 36521 ft | 373 kts | 168° |
| 2026-04-29 10:51 | 44.85504 | 49.11894 | 36664 ft | 374 kts | 168° |
| 2026-04-29 10:51 | 44.83028 | 49.12857 | 36810 ft | 374 kts | 168° |
| 2026-04-29 10:51 | 44.80527 | 49.13826 | 36955 ft | 373 kts | 168° |
| 2026-04-29 10:52 | 44.78004 | 49.14806 | 37093 ft | 374 kts | 168° |
| 2026-04-29 10:52 | 44.72982 | 49.16750 | 37137 ft | 375 kts | 168° |
| 2026-04-29 10:53 | 44.67986 | 49.18691 | 37146 ft | 374 kts | 168° |
| 2026-04-29 10:53 | 44.62965 | 49.20635 | 37150 ft | 375 kts | 168° |
| 2026-04-29 10:54 | 44.57941 | 49.22583 | 37155 ft | 375 kts | 168° |
| 2026-04-29 10:54 | 44.52960 | 49.24518 | 37140 ft | 374 kts | 168° |
| 2026-04-29 10:55 | 44.47928 | 49.26465 | 37149 ft | 374 kts | 168° |
| 2026-04-29 10:55 | 44.42916 | 49.28415 | 37132 ft | 375 kts | 168° |
| 2026-04-29 10:56 | 44.37904 | 49.30360 | 37135 ft | 375 kts | 168° |
| 2026-04-29 10:56 | 44.32893 | 49.32302 | 37139 ft | 376 kts | 168° |
| 2026-04-29 10:57 | 44.27880 | 49.34250 | 37128 ft | 375 kts | 168° |
| 2026-04-29 10:57 | 44.22832 | 49.36208 | 37130 ft | 375 kts | 168° |
| 2026-04-29 10:58 | 44.17803 | 49.38164 | 37131 ft | 376 kts | 167° |
| 2026-04-29 10:58 | 44.12787 | 49.40111 | 37123 ft | 375 kts | 167° |
| 2026-04-29 10:59 | 44.07788 | 49.42053 | 37137 ft | 374 kts | 168° |
| 2026-04-29 10:59 | 44.02763 | 49.44006 | 37131 ft | 374 kts | 167° |
| 2026-04-29 11:00 | 43.97782 | 49.45940 | 37117 ft | 375 kts | 167° |
| 2026-04-29 11:00 | 43.92692 | 49.47001 | 37090 ft | 370 kts | 188° |
| 2026-04-29 11:01 | 43.87677 | 49.45455 | 37108 ft | 370 kts | 200° |
| 2026-04-29 11:01 | 43.83267 | 49.41931 | 37126 ft | 370 kts | 219° |
| 2026-04-29 11:02 | 43.79693 | 49.36865 | 37126 ft | 370 kts | 225° |
| 2026-04-29 11:02 | 43.76279 | 49.31480 | 37144 ft | 371 kts | 227° |
| 2026-04-29 11:03 | 43.72952 | 49.26042 | 37131 ft | 371 kts | 227° |
| 2026-04-29 11:03 | 43.69643 | 49.20577 | 37133 ft | 372 kts | 228° |
| 2026-04-29 11:04 | 43.66339 | 49.15106 | 37129 ft | 373 kts | 228° |
| 2026-04-29 11:04 | 43.63020 | 49.09597 | 37125 ft | 374 kts | 228° |
| 2026-04-29 11:05 | 43.59716 | 49.04104 | 37122 ft | 373 kts | 229° |
| 2026-04-29 11:05 | 43.56436 | 48.98645 | 37119 ft | 373 kts | 229° |
| 2026-04-29 11:06 | 43.53130 | 48.93149 | 37117 ft | 373 kts | 229° |
| 2026-04-29 11:06 | 43.49824 | 48.87646 | 37122 ft | 373 kts | 229° |
| 2026-04-29 11:07 | 43.46535 | 48.82157 | 37101 ft | 374 kts | 229° |
| 2026-04-29 11:07 | 43.44899 | 48.79425 | 36964 ft | 376 kts | 229° |
| 2026-04-29 11:07 | 43.43241 | 48.76657 | 36838 ft | 375 kts | 229° |
| 2026-04-29 11:07 | 43.41590 | 48.73897 | 36690 ft | 375 kts | 229° |
| 2026-04-29 11:08 | 43.39934 | 48.71137 | 36549 ft | 375 kts | 229° |
| 2026-04-29 11:08 | 43.38276 | 48.68368 | 36414 ft | 375 kts | 229° |
| 2026-04-29 11:08 | 43.36626 | 48.65609 | 36271 ft | 376 kts | 229° |
| 2026-04-29 11:08 | 43.34962 | 48.62824 | 36141 ft | 376 kts | 229° |
| 2026-04-29 11:09 | 43.33322 | 48.60085 | 36134 ft | 375 kts | 229° |
| 2026-04-29 11:09 | 43.30007 | 48.54541 | 36126 ft | 377 kts | 229° |
| 2026-04-29 11:10 | 43.26690 | 48.48982 | 36132 ft | 378 kts | 229° |
| 2026-04-29 11:10 | 43.23378 | 48.43434 | 36132 ft | 377 kts | 230° |
| 2026-04-29 11:11 | 43.20130 | 48.37774 | 36138 ft | 378 kts | 231° |
| 2026-04-29 11:11 | 43.16876 | 48.32074 | 36132 ft | 378 kts | 230° |
| 2026-04-29 11:12 | 43.13633 | 48.26436 | 36147 ft | 378 kts | 230° |
| 2026-04-29 11:12 | 43.10393 | 48.20799 | 36139 ft | 377 kts | 230° |
| 2026-04-29 11:13 | 43.07157 | 48.15178 | 36154 ft | 378 kts | 230° |
| 2026-04-29 11:13 | 43.03928 | 48.09560 | 36148 ft | 377 kts | 230° |
| 2026-04-29 11:14 | 43.00667 | 48.03887 | 36150 ft | 378 kts | 230° |
| 2026-04-29 11:14 | 42.97439 | 47.98266 | 36151 ft | 380 kts | 231° |
| 2026-04-29 11:15 | 42.94196 | 47.92605 | 36147 ft | 380 kts | 231° |
| 2026-04-29 11:15 | 42.90948 | 47.86930 | 36141 ft | 380 kts | 231° |
| 2026-04-29 11:16 | 42.87712 | 47.81274 | 36145 ft | 380 kts | 231° |
| 2026-04-29 11:16 | 42.84475 | 47.75611 | 36147 ft | 379 kts | 231° |
| 2026-04-29 11:17 | 42.81239 | 47.69949 | 36133 ft | 379 kts | 231° |
| 2026-04-29 11:17 | 42.78000 | 47.64348 | 36139 ft | 378 kts | 230° |
| 2026-04-29 11:18 | 42.74649 | 47.58816 | 36119 ft | 379 kts | 229° |
| 2026-04-29 11:18 | 42.71287 | 47.53315 | 36122 ft | 380 kts | 229° |
| 2026-04-29 11:19 | 42.67915 | 47.47811 | 36105 ft | 379 kts | 229° |
| 2026-04-29 11:19 | 42.64561 | 47.42333 | 36098 ft | 380 kts | 230° |
| 2026-04-29 11:20 | 42.61200 | 47.36837 | 36087 ft | 380 kts | 230° |
| 2026-04-29 11:20 | 42.57819 | 47.31311 | 36087 ft | 378 kts | 229° |
| 2026-04-29 11:21 | 42.54431 | 47.25768 | 36103 ft | 379 kts | 229° |
| 2026-04-29 11:21 | 42.51057 | 47.20240 | 36090 ft | 379 kts | 229° |
| 2026-04-29 11:22 | 42.47697 | 47.14727 | 36087 ft | 380 kts | 229° |
| 2026-04-29 11:22 | 42.44327 | 47.09197 | 36085 ft | 380 kts | 229° |
| 2026-04-29 11:23 | 42.40956 | 47.03661 | 36101 ft | 377 kts | 229° |
| 2026-04-29 11:23 | 42.39326 | 47.00984 | 36066 ft | 361 kts | 229° |
| 2026-04-29 11:23 | 42.37770 | 46.98425 | 36065 ft | 344 kts | 229° |
| 2026-04-29 11:23 | 42.36303 | 46.96014 | 36045 ft | 328 kts | 229° |
| 2026-04-29 11:24 | 42.34876 | 46.93666 | 36046 ft | 315 kts | 229° |
| 2026-04-29 11:24 | 42.32116 | 46.89133 | 36115 ft | 317 kts | 229° |
| 2026-04-29 11:25 | 42.29298 | 46.84497 | 36109 ft | 324 kts | 230° |
| 2026-04-29 11:25 | 42.26454 | 46.79805 | 36104 ft | 324 kts | 230° |
| 2026-04-29 11:26 | 42.22190 | 46.72772 | 36105 ft | 323 kts | 230° |
| 2026-04-29 11:26 | 42.19349 | 46.68084 | 36093 ft | 323 kts | 230° |
| 2026-04-29 11:27 | 42.16516 | 46.63402 | 36089 ft | 323 kts | 230° |
| 2026-04-29 11:27 | 42.13675 | 46.58704 | 36075 ft | 323 kts | 230° |
| 2026-04-29 11:28 | 42.10844 | 46.54020 | 36083 ft | 324 kts | 230° |
| 2026-04-29 11:28 | 42.08014 | 46.49331 | 36076 ft | 324 kts | 230° |
| 2026-04-29 11:29 | 42.05165 | 46.44617 | 36074 ft | 324 kts | 230° |
| 2026-04-29 11:29 | 42.02330 | 46.39924 | 36072 ft | 324 kts | 231° |
| 2026-04-29 11:30 | 41.99510 | 46.35244 | 36066 ft | 324 kts | 231° |
| 2026-04-29 11:30 | 41.96674 | 46.30531 | 36065 ft | 324 kts | 230° |
| 2026-04-29 11:31 | 41.95505 | 46.27947 | 36044 ft | 326 kts | 247° |
| 2026-04-29 11:31 | 41.94767 | 46.25077 | 36094 ft | 326 kts | 250° |
| 2026-04-29 11:31 | 41.93396 | 46.19298 | 36046 ft | 327 kts | 250° |
| 2026-04-29 11:32 | 41.92023 | 46.13498 | 36032 ft | 327 kts | 250° |
| 2026-04-29 11:32 | 41.90658 | 46.07688 | 36060 ft | 328 kts | 250° |
| 2026-04-29 11:33 | 41.89293 | 46.01862 | 36073 ft | 327 kts | 251° |
| 2026-04-29 11:33 | 41.87937 | 45.96058 | 36077 ft | 327 kts | 251° |
| 2026-04-29 11:34 | 41.86586 | 45.90236 | 36074 ft | 327 kts | 251° |
| 2026-04-29 11:34 | 41.85234 | 45.84406 | 36078 ft | 327 kts | 251° |
| 2026-04-29 11:35 | 41.83887 | 45.78596 | 36066 ft | 326 kts | 251° |
| 2026-04-29 11:35 | 41.82550 | 45.72824 | 36061 ft | 325 kts | 251° |
| 2026-04-29 11:36 | 41.81215 | 45.67047 | 36067 ft | 325 kts | 251° |
| 2026-04-29 11:36 | 41.79883 | 45.61268 | 36060 ft | 326 kts | 251° |
| 2026-04-29 11:37 | 41.78561 | 45.55515 | 36056 ft | 326 kts | 251° |
| 2026-04-29 11:37 | 41.77234 | 45.49728 | 36055 ft | 325 kts | 251° |
| 2026-04-29 11:38 | 41.75909 | 45.43936 | 36065 ft | 325 kts | 251° |
| 2026-04-29 11:38 | 41.74588 | 45.38147 | 36054 ft | 326 kts | 251° |
| 2026-04-29 11:39 | 41.73269 | 45.32364 | 36057 ft | 326 kts | 251° |
| 2026-04-29 11:39 | 41.71955 | 45.26579 | 36066 ft | 325 kts | 251° |
| 2026-04-29 11:40 | 41.70866 | 45.20677 | 36068 ft | 327 kts | 256° |
| 2026-04-29 11:40 | 41.70017 | 45.14722 | 36060 ft | 326 kts | 256° |
| 2026-04-29 11:41 | 41.69140 | 45.08778 | 36047 ft | 326 kts | 256° |
| 2026-04-29 11:41 | 41.68262 | 45.02879 | 36053 ft | 326 kts | 256° |
| 2026-04-29 11:42 | 41.67375 | 44.96922 | 36043 ft | 326 kts | 256° |
| 2026-04-29 11:42 | 41.66485 | 44.91012 | 36039 ft | 326 kts | 256° |
| 2026-04-29 11:43 | 41.65567 | 44.85059 | 36040 ft | 326 kts | 256° |
| 2026-04-29 11:43 | 41.64655 | 44.79153 | 36045 ft | 325 kts | 256° |
| 2026-04-29 11:44 | 41.63739 | 44.73211 | 36043 ft | 326 kts | 256° |
| 2026-04-29 11:44 | 41.62825 | 44.67258 | 36043 ft | 325 kts | 256° |
| 2026-04-29 11:45 | 41.61911 | 44.61316 | 35993 ft | 327 kts | 256° |
| 2026-04-29 11:45 | 41.61443 | 44.58268 | 35804 ft | 329 kts | 256° |
| 2026-04-29 11:45 | 41.60984 | 44.55273 | 35505 ft | 332 kts | 256° |
| 2026-04-29 11:46 | 41.60521 | 44.52245 | 35100 ft | 333 kts | 256° |
| 2026-04-29 11:46 | 41.60062 | 44.49222 | 34693 ft | 332 kts | 256° |
| 2026-04-29 11:46 | 41.59638 | 44.46199 | 34245 ft | 332 kts | 259° |
| 2026-04-29 11:46 | 41.59314 | 44.43131 | 33750 ft | 331 kts | 260° |
| 2026-04-29 11:47 | 41.58997 | 44.40070 | 33278 ft | 329 kts | 260° |
| 2026-04-29 11:47 | 41.58681 | 44.37043 | 32878 ft | 326 kts | 259° |
| 2026-04-29 11:47 | 41.58360 | 44.34028 | 32477 ft | 326 kts | 259° |
| 2026-04-29 11:47 | 41.58038 | 44.31038 | 32107 ft | 327 kts | 259° |
| 2026-04-29 11:48 | 41.57708 | 44.28050 | 31746 ft | 329 kts | 256° |
| 2026-04-29 11:48 | 41.56924 | 44.25185 | 31343 ft | 329 kts | 238° |
| 2026-04-29 11:48 | 41.55626 | 44.22695 | 31017 ft | 328 kts | 230° |
| 2026-04-29 11:48 | 41.54076 | 44.20488 | 30655 ft | 329 kts | 223° |
| 2026-04-29 11:49 | 41.52351 | 44.18495 | 30282 ft | 329 kts | 220° |
| 2026-04-29 11:49 | 41.50579 | 44.16571 | 29892 ft | 330 kts | 219° |
| 2026-04-29 11:49 | 41.48783 | 44.14682 | 29492 ft | 331 kts | 219° |
| 2026-04-29 11:49 | 41.46962 | 44.12794 | 29090 ft | 331 kts | 219° |
| 2026-04-29 11:50 | 41.45150 | 44.10933 | 28695 ft | 332 kts | 218° |
| 2026-04-29 11:50 | 41.43309 | 44.09051 | 28293 ft | 333 kts | 218° |
| 2026-04-29 11:50 | 41.41479 | 44.07187 | 27902 ft | 334 kts | 218° |
| 2026-04-29 11:50 | 41.39632 | 44.05306 | 27501 ft | 335 kts | 218° |
| 2026-04-29 11:51 | 41.37789 | 44.03431 | 27100 ft | 336 kts | 218° |
| 2026-04-29 11:51 | 41.35938 | 44.01548 | 26703 ft | 337 kts | 218° |
| 2026-04-29 11:51 | 41.34069 | 43.99651 | 26298 ft | 338 kts | 218° |
| 2026-04-29 11:51 | 41.32209 | 43.97761 | 25900 ft | 339 kts | 218° |
| 2026-04-29 11:52 | 41.30330 | 43.95853 | 25502 ft | 341 kts | 218° |
| 2026-04-29 11:52 | 41.28448 | 43.93943 | 25100 ft | 342 kts | 218° |
| 2026-04-29 11:52 | 41.26553 | 43.92017 | 24700 ft | 343 kts | 218° |
| 2026-04-29 11:52 | 41.24658 | 43.90090 | 24291 ft | 343 kts | 218° |
| 2026-04-29 11:53 | 41.22759 | 43.88160 | 23879 ft | 344 kts | 218° |
| 2026-04-29 11:53 | 41.20873 | 43.86242 | 23485 ft | 344 kts | 218° |
| 2026-04-29 11:53 | 41.18961 | 43.84298 | 23089 ft | 346 kts | 218° |
| 2026-04-29 11:53 | 41.17049 | 43.82356 | 22689 ft | 347 kts | 218° |
| 2026-04-29 11:54 | 41.15010 | 43.80709 | 22266 ft | 352 kts | 204° |
| 2026-04-29 11:54 | 41.12615 | 43.79911 | 21874 ft | 355 kts | 190° |
| 2026-04-29 11:54 | 41.10137 | 43.79675 | 21497 ft | 359 kts | 182° |
| 2026-04-29 11:54 | 41.07632 | 43.79812 | 21108 ft | 362 kts | 179° |
| 2026-04-29 11:55 | 41.05130 | 43.80061 | 20726 ft | 364 kts | 177° |
| 2026-04-29 11:55 | 41.02605 | 43.80379 | 20343 ft | 367 kts | 176° |
| 2026-04-29 11:55 | 41.00071 | 43.80722 | 19946 ft | 368 kts | 176° |
| 2026-04-29 11:55 | 40.97504 | 43.81087 | 19523 ft | 371 kts | 175° |
| 2026-04-29 11:56 | 40.94935 | 43.81460 | 19111 ft | 372 kts | 175° |
| 2026-04-29 11:56 | 40.92309 | 43.81850 | 18746 ft | 373 kts | 175° |
| 2026-04-29 11:56 | 40.89749 | 43.82229 | 18535 ft | 373 kts | 175° |
| 2026-04-29 11:56 | 40.87114 | 43.82623 | 18319 ft | 375 kts | 175° |
| 2026-04-29 11:57 | 40.84516 | 43.83015 | 18065 ft | 367 kts | 175° |
| 2026-04-29 11:57 | 40.82023 | 43.83395 | 17762 ft | 351 kts | 175° |
| 2026-04-29 11:57 | 40.79631 | 43.83747 | 17482 ft | 338 kts | 175° |
| 2026-04-29 11:57 | 40.77338 | 43.84083 | 17182 ft | 327 kts | 175° |
| 2026-04-29 11:58 | 40.75069 | 43.84413 | 16887 ft | 318 kts | 175° |
| 2026-04-29 11:58 | 40.72877 | 43.84733 | 16476 ft | 318 kts | 175° |
| 2026-04-29 11:58 | 40.70658 | 43.85029 | 16015 ft | 318 kts | 176° |
| 2026-04-29 11:58 | 40.68438 | 43.85308 | 15571 ft | 317 kts | 176° |
| 2026-04-29 11:59 | 40.66259 | 43.85578 | 15142 ft | 316 kts | 176° |
| 2026-04-29 11:59 | 40.64074 | 43.85849 | 14714 ft | 315 kts | 175° |
| 2026-04-29 11:59 | 40.61918 | 43.86121 | 14308 ft | 314 kts | 175° |
| 2026-04-29 11:59 | 40.59735 | 43.86399 | 13884 ft | 313 kts | 175° |
| 2026-04-29 12:00 | 40.57570 | 43.86674 | 13474 ft | 312 kts | 175° |
| 2026-04-29 12:00 | 40.55434 | 43.86946 | 13094 ft | 310 kts | 175° |
| 2026-04-29 12:00 | 40.53307 | 43.87223 | 13047 ft | 305 kts | 175° |
| 2026-04-29 12:00 | 40.51171 | 43.87500 | 13063 ft | 307 kts | 175° |
| 2026-04-29 12:01 | 40.49056 | 43.87771 | 13045 ft | 309 kts | 175° |
| 2026-04-29 12:01 | 40.46902 | 43.88050 | 13031 ft | 309 kts | 175° |
| 2026-04-29 12:01 | 40.44761 | 43.88326 | 13013 ft | 309 kts | 175° |
| 2026-04-29 12:01 | 40.42623 | 43.88598 | 13020 ft | 309 kts | 175° |
| 2026-04-29 12:02 | 40.40500 | 43.88869 | 13028 ft | 309 kts | 175° |
| 2026-04-29 12:02 | 40.38367 | 43.89133 | 13021 ft | 309 kts | 177° |
| 2026-04-29 12:02 | 40.36291 | 43.88636 | 12953 ft | 305 kts | 210° |
| 2026-04-29 12:02 | 40.34772 | 43.86755 | 13031 ft | 300 kts | 241° |
| 2026-04-29 12:03 | 40.34211 | 43.84177 | 13048 ft | 298 kts | 271° |
| 2026-04-29 12:03 | 40.34750 | 43.81601 | 13065 ft | 295 kts | 302° |
| 2026-04-29 12:03 | 40.36223 | 43.79774 | 13079 ft | 295 kts | 329° |
| 2026-04-29 12:03 | 40.38038 | 43.78540 | 13098 ft | 297 kts | 336° |
| 2026-04-29 12:04 | 40.40020 | 43.77707 | 13069 ft | 297 kts | 346° |
| 2026-04-29 12:04 | 40.42042 | 43.77235 | 13065 ft | 298 kts | 352° |
| 2026-04-29 12:04 | 40.44116 | 43.76975 | 13057 ft | 298 kts | 355° |
| 2026-04-29 12:04 | 40.46191 | 43.76847 | 13056 ft | 297 kts | 357° |
| 2026-04-29 12:05 | 40.48258 | 43.76794 | 13067 ft | 298 kts | 358° |
| 2026-04-29 12:05 | 40.50317 | 43.76780 | 13060 ft | 298 kts | 359° |
| 2026-04-29 12:05 | 40.52390 | 43.76793 | 13058 ft | 298 kts | 359° |
| 2026-04-29 12:05 | 40.54469 | 43.76821 | 13067 ft | 299 kts | 359° |
| 2026-04-29 12:06 | 40.56541 | 43.76857 | 13061 ft | 299 kts | 360° |
| 2026-04-29 12:06 | 40.58614 | 43.76898 | 13056 ft | 299 kts | 360° |
| 2026-04-29 12:06 | 40.60716 | 43.76942 | 13066 ft | 299 kts | 360° |
| 2026-04-29 12:06 | 40.62781 | 43.76989 | 13058 ft | 299 kts | 0° |
| 2026-04-29 12:07 | 40.64865 | 43.77037 | 13054 ft | 299 kts | 360° |
| 2026-04-29 12:07 | 40.66941 | 43.77086 | 13058 ft | 299 kts | 0° |
| 2026-04-29 12:07 | 40.69005 | 43.77134 | 13050 ft | 299 kts | 0° |
| 2026-04-29 12:07 | 40.71087 | 43.77183 | 13047 ft | 298 kts | 0° |
| 2026-04-29 12:08 | 40.73159 | 43.77249 | 13055 ft | 298 kts | 3° |
| 2026-04-29 12:08 | 40.75113 | 43.78168 | 13009 ft | 302 kts | 37° |
| 2026-04-29 12:08 | 40.76365 | 43.80344 | 13071 ft | 305 kts | 67° |
| 2026-04-29 12:08 | 40.76629 | 43.83100 | 13064 ft | 309 kts | 98° |
| 2026-04-29 12:09 | 40.75792 | 43.85687 | 13078 ft | 311 kts | 128° |
| 2026-04-29 12:09 | 40.74101 | 43.87420 | 13085 ft | 310 kts | 153° |
| 2026-04-29 12:09 | 40.72100 | 43.88472 | 13084 ft | 310 kts | 164° |
| 2026-04-29 12:09 | 40.70015 | 43.89065 | 13070 ft | 309 kts | 172° |
| 2026-04-29 12:10 | 40.67864 | 43.89382 | 13079 ft | 309 kts | 176° |
| 2026-04-29 12:10 | 40.65709 | 43.89533 | 13065 ft | 309 kts | 179° |
| 2026-04-29 12:10 | 40.63585 | 43.89591 | 13071 ft | 309 kts | 180° |
| 2026-04-29 12:10 | 40.61431 | 43.89601 | 13078 ft | 309 kts | 181° |
| 2026-04-29 12:11 | 40.59284 | 43.89582 | 13065 ft | 310 kts | 181° |
| 2026-04-29 12:11 | 40.57125 | 43.89549 | 13067 ft | 309 kts | 182° |
| 2026-04-29 12:11 | 40.54956 | 43.89505 | 13059 ft | 310 kts | 182° |
| 2026-04-29 12:11 | 40.52818 | 43.89457 | 13047 ft | 310 kts | 182° |
| 2026-04-29 12:12 | 40.50648 | 43.89405 | 13046 ft | 310 kts | 182° |
| 2026-04-29 12:12 | 40.48490 | 43.89350 | 13042 ft | 310 kts | 182° |
| 2026-04-29 12:12 | 40.46350 | 43.89296 | 13032 ft | 309 kts | 182° |
| 2026-04-29 12:12 | 40.44178 | 43.89243 | 13027 ft | 309 kts | 182° |
| 2026-04-29 12:13 | 40.42028 | 43.89194 | 13035 ft | 309 kts | 182° |
| 2026-04-29 12:13 | 40.39905 | 43.89144 | 13033 ft | 309 kts | 182° |
| 2026-04-29 12:13 | 40.37738 | 43.89067 | 13018 ft | 308 kts | 187° |
| 2026-04-29 12:13 | 40.35794 | 43.88045 | 12981 ft | 304 kts | 221° |
| 2026-04-29 12:14 | 40.34588 | 43.85848 | 13035 ft | 300 kts | 252° |
| 2026-04-29 12:14 | 40.34407 | 43.83162 | 13045 ft | 296 kts | 282° |
| 2026-04-29 12:14 | 40.35313 | 43.80776 | 13063 ft | 295 kts | 313° |
| 2026-04-29 12:14 | 40.36978 | 43.79255 | 13104 ft | 294 kts | 332° |
| 2026-04-29 12:15 | 40.38835 | 43.78161 | 13057 ft | 296 kts | 341° |
| 2026-04-29 12:15 | 40.40845 | 43.77492 | 13057 ft | 295 kts | 348° |
| 2026-04-29 12:15 | 40.42858 | 43.77115 | 13060 ft | 296 kts | 353° |
| 2026-04-29 12:15 | 40.44941 | 43.76911 | 13038 ft | 297 kts | 356° |
| 2026-04-29 12:16 | 40.46989 | 43.76815 | 13063 ft | 297 kts | 358° |
| 2026-04-29 12:16 | 40.49065 | 43.76780 | 13058 ft | 298 kts | 359° |
| 2026-04-29 12:16 | 40.51138 | 43.76779 | 13054 ft | 298 kts | 360° |
| 2026-04-29 12:16 | 40.53199 | 43.76797 | 13051 ft | 298 kts | 360° |
| 2026-04-29 12:17 | 40.55276 | 43.76831 | 13059 ft | 298 kts | 0° |
| 2026-04-29 12:17 | 40.57354 | 43.76871 | 13055 ft | 299 kts | 0° |
| 2026-04-29 12:17 | 40.59432 | 43.76915 | 13055 ft | 298 kts | 0° |
| 2026-04-29 12:17 | 40.61509 | 43.76962 | 13051 ft | 298 kts | 0° |
| 2026-04-29 12:18 | 40.63573 | 43.77010 | 13048 ft | 297 kts | 0° |
| 2026-04-29 12:18 | 40.65627 | 43.77058 | 13051 ft | 297 kts | 360° |
| 2026-04-29 12:18 | 40.67710 | 43.77109 | 13054 ft | 297 kts | 360° |
| 2026-04-29 12:18 | 40.69774 | 43.77158 | 13046 ft | 298 kts | 0° |
| 2026-04-29 12:19 | 40.71842 | 43.77206 | 13049 ft | 298 kts | 0° |
| 2026-04-29 12:19 | 40.73910 | 43.77398 | 13030 ft | 300 kts | 14° |
| 2026-04-29 12:19 | 40.75669 | 43.78848 | 13030 ft | 303 kts | 48° |
| 2026-04-29 12:19 | 40.76602 | 43.81332 | 13061 ft | 307 kts | 78° |
| 2026-04-29 12:20 | 40.76463 | 43.84104 | 13062 ft | 309 kts | 109° |
| 2026-04-29 12:20 | 40.75279 | 43.86434 | 13067 ft | 310 kts | 139° |
| 2026-04-29 12:20 | 40.73418 | 43.87853 | 13100 ft | 310 kts | 157° |
| 2026-04-29 12:20 | 40.71384 | 43.88728 | 13064 ft | 311 kts | 167° |
| 2026-04-29 12:21 | 40.69233 | 43.89210 | 13079 ft | 310 kts | 174° |
| 2026-04-29 12:21 | 40.67094 | 43.89455 | 13061 ft | 311 kts | 177° |
| 2026-04-29 12:21 | 40.64928 | 43.89566 | 13054 ft | 310 kts | 179° |
| 2026-04-29 12:21 | 40.62783 | 43.89601 | 13068 ft | 310 kts | 181° |
| 2026-04-29 12:22 | 40.60625 | 43.89597 | 13064 ft | 310 kts | 181° |
| 2026-04-29 12:22 | 40.58479 | 43.89570 | 13057 ft | 309 kts | 181° |
| 2026-04-29 12:22 | 40.56335 | 43.89530 | 13062 ft | 308 kts | 182° |
| 2026-04-29 12:22 | 40.54185 | 43.89482 | 13044 ft | 309 kts | 182° |
| 2026-04-29 12:23 | 40.52031 | 43.89433 | 13044 ft | 309 kts | 182° |
| 2026-04-29 12:23 | 40.49880 | 43.89381 | 13035 ft | 309 kts | 182° |
| 2026-04-29 12:23 | 40.47717 | 43.89330 | 13030 ft | 309 kts | 182° |
| 2026-04-29 12:23 | 40.45583 | 43.89278 | 13021 ft | 309 kts | 182° |
| 2026-04-29 12:24 | 40.43433 | 43.89227 | 13023 ft | 309 kts | 182° |
| 2026-04-29 12:24 | 40.41262 | 43.89176 | 13021 ft | 310 kts | 182° |
| 2026-04-29 12:24 | 40.39113 | 43.89126 | 13019 ft | 310 kts | 182° |
| 2026-04-29 12:24 | 40.36984 | 43.88885 | 12979 ft | 309 kts | 199° |
| 2026-04-29 12:25 | 40.35241 | 43.87356 | 13012 ft | 303 kts | 232° |
| 2026-04-29 12:25 | 40.34358 | 43.84881 | 13028 ft | 299 kts | 263° |
| 2026-04-29 12:25 | 40.35805 | 43.80134 | 13059 ft | 295 kts | 324° |
| 2026-04-29 12:26 | 40.37582 | 43.78815 | 13102 ft | 296 kts | 334° |
| 2026-04-29 12:26 | 40.39525 | 43.77869 | 13041 ft | 297 kts | 344° |
| 2026-04-29 12:26 | 40.41544 | 43.77325 | 13059 ft | 297 kts | 351° |
| 2026-04-29 12:26 | 40.43596 | 43.77023 | 13050 ft | 298 kts | 354° |
| 2026-04-29 12:27 | 40.45667 | 43.76868 | 13046 ft | 297 kts | 357° |
| 2026-04-29 12:27 | 40.47727 | 43.76799 | 13057 ft | 297 kts | 358° |
| 2026-04-29 12:27 | 40.49809 | 43.76779 | 13049 ft | 297 kts | 359° |
| 2026-04-29 12:27 | 40.51870 | 43.76786 | 13050 ft | 297 kts | 359° |
| 2026-04-29 12:28 | 40.53924 | 43.76810 | 13043 ft | 297 kts | 360° |
| 2026-04-29 12:28 | 40.56010 | 43.76844 | 13051 ft | 297 kts | 0° |
| 2026-04-29 12:28 | 40.58055 | 43.76883 | 13048 ft | 297 kts | 0° |
| 2026-04-29 12:28 | 40.60117 | 43.76926 | 13057 ft | 297 kts | 0° |
| 2026-04-29 12:29 | 40.62206 | 43.76978 | 13051 ft | 298 kts | 0° |
| 2026-04-29 12:29 | 40.64274 | 43.77027 | 13047 ft | 298 kts | 0° |
| 2026-04-29 12:29 | 40.66350 | 43.77074 | 13056 ft | 299 kts | 0° |
| 2026-04-29 12:29 | 40.68435 | 43.77124 | 13053 ft | 299 kts | 0° |
| 2026-04-29 12:30 | 40.70491 | 43.77173 | 13051 ft | 299 kts | 0° |
| 2026-04-29 12:30 | 40.72567 | 43.77223 | 13059 ft | 299 kts | 0° |
| 2026-04-29 12:30 | 40.74615 | 43.77751 | 13002 ft | 302 kts | 27° |
| 2026-04-29 12:30 | 40.76105 | 43.79643 | 13064 ft | 305 kts | 58° |
| 2026-04-29 12:31 | 40.76682 | 43.82317 | 13069 ft | 309 kts | 89° |
| 2026-04-29 12:31 | 40.76151 | 43.85048 | 13079 ft | 312 kts | 119° |
| 2026-04-29 12:31 | 40.74670 | 43.87065 | 13075 ft | 312 kts | 149° |
| 2026-04-29 12:31 | 40.72686 | 43.88267 | 13102 ft | 311 kts | 161° |
| 2026-04-29 12:32 | 40.70608 | 43.88962 | 13061 ft | 311 kts | 171° |
| 2026-04-29 12:32 | 40.68442 | 43.89333 | 13090 ft | 310 kts | 176° |
| 2026-04-29 12:32 | 40.66309 | 43.89511 | 13062 ft | 309 kts | 178° |
| 2026-04-29 12:32 | 40.64156 | 43.89586 | 13072 ft | 309 kts | 180° |
| 2026-04-29 12:33 | 40.62022 | 43.89605 | 13075 ft | 309 kts | 181° |
| 2026-04-29 12:33 | 40.59857 | 43.89588 | 13069 ft | 309 kts | 181° |
| 2026-04-29 12:33 | 40.57713 | 43.89555 | 13067 ft | 309 kts | 182° |
| 2026-04-29 12:33 | 40.55546 | 43.89511 | 13060 ft | 309 kts | 182° |
| 2026-04-29 12:34 | 40.53416 | 43.89464 | 13049 ft | 310 kts | 182° |
| 2026-04-29 12:34 | 40.51262 | 43.89415 | 13048 ft | 310 kts | 182° |
| 2026-04-29 12:34 | 40.49090 | 43.89362 | 13042 ft | 310 kts | 182° |
| 2026-04-29 12:34 | 40.46932 | 43.89311 | 13035 ft | 311 kts | 182° |
| 2026-04-29 12:35 | 40.44760 | 43.89261 | 13028 ft | 310 kts | 182° |
| 2026-04-29 12:35 | 40.43348 | 43.89227 | 13031 ft | 310 kts | 182° |
| 2026-04-29 12:35 | 40.40450 | 43.89159 | 13025 ft | 310 kts | 182° |
| 2026-04-29 12:35 | 40.38299 | 43.89110 | 13020 ft | 309 kts | 182° |
| 2026-04-29 12:36 | 40.36231 | 43.88451 | 12966 ft | 306 kts | 213° |
| 2026-04-29 12:36 | 40.34801 | 43.86476 | 13027 ft | 301 kts | 244° |
| 2026-04-29 12:36 | 40.34341 | 43.83863 | 13032 ft | 297 kts | 274° |
| 2026-04-29 12:36 | 40.34969 | 43.81355 | 13048 ft | 295 kts | 305° |
| 2026-04-29 12:37 | 40.36495 | 43.79613 | 13083 ft | 295 kts | 330° |
| 2026-04-29 12:37 | 40.38348 | 43.78401 | 13082 ft | 296 kts | 338° |
| 2026-04-29 12:37 | 40.40308 | 43.77638 | 13056 ft | 296 kts | 347° |
| 2026-04-29 12:37 | 40.42357 | 43.77190 | 13057 ft | 296 kts | 352° |
| 2026-04-29 12:38 | 40.44388 | 43.76953 | 13045 ft | 296 kts | 355° |
| 2026-04-29 12:38 | 40.46446 | 43.76836 | 13059 ft | 296 kts | 358° |
| 2026-04-29 12:38 | 40.48511 | 43.76788 | 13059 ft | 297 kts | 359° |
| 2026-04-29 12:38 | 40.50586 | 43.76779 | 13057 ft | 297 kts | 359° |
| 2026-04-29 12:39 | 40.52666 | 43.76795 | 13054 ft | 297 kts | 359° |
| 2026-04-29 12:39 | 40.54720 | 43.76825 | 13055 ft | 297 kts | 360° |
| 2026-04-29 12:39 | 40.56801 | 43.76860 | 13059 ft | 299 kts | 360° |
| 2026-04-29 12:39 | 40.58866 | 43.76902 | 13056 ft | 298 kts | 0° |
| 2026-04-29 12:40 | 40.60930 | 43.76949 | 13051 ft | 297 kts | 0° |
| 2026-04-29 12:40 | 40.63018 | 43.76997 | 13045 ft | 298 kts | 0° |
| 2026-04-29 12:40 | 40.65074 | 43.77043 | 13052 ft | 298 kts | 0° |
| 2026-04-29 12:40 | 40.67156 | 43.77090 | 13057 ft | 298 kts | 0° |
| 2026-04-29 12:41 | 40.69210 | 43.77140 | 13050 ft | 298 kts | 0° |
| 2026-04-29 12:41 | 40.71294 | 43.77191 | 13051 ft | 298 kts | 0° |
| 2026-04-29 12:41 | 40.73357 | 43.77274 | 13058 ft | 298 kts | 5° |
| 2026-04-29 12:41 | 40.75252 | 43.78321 | 13017 ft | 302 kts | 40° |
| 2026-04-29 12:42 | 40.76428 | 43.80581 | 13084 ft | 307 kts | 70° |
| 2026-04-29 12:42 | 40.76599 | 43.83354 | 13057 ft | 310 kts | 100° |
| 2026-04-29 12:42 | 40.75675 | 43.85896 | 13082 ft | 311 kts | 131° |
| 2026-04-29 12:42 | 40.73917 | 43.87563 | 13095 ft | 310 kts | 155° |
| 2026-04-29 12:43 | 40.71910 | 43.88561 | 13081 ft | 312 kts | 165° |
| 2026-04-29 12:43 | 40.69782 | 43.89119 | 13077 ft | 310 kts | 173° |
| 2026-04-29 12:43 | 40.67661 | 43.89407 | 13080 ft | 309 kts | 177° |
| 2026-04-29 12:43 | 40.65494 | 43.89545 | 13057 ft | 309 kts | 179° |
| 2026-04-29 12:44 | 40.63356 | 43.89595 | 13079 ft | 310 kts | 180° |
| 2026-04-29 12:44 | 40.61193 | 43.89599 | 13077 ft | 310 kts | 181° |
| 2026-04-29 12:44 | 40.59039 | 43.89576 | 13070 ft | 310 kts | 181° |
| 2026-04-29 12:44 | 40.56865 | 43.89538 | 13065 ft | 310 kts | 182° |
| 2026-04-29 12:45 | 40.54703 | 43.89492 | 13050 ft | 310 kts | 182° |
| 2026-04-29 12:45 | 40.52562 | 43.89444 | 13044 ft | 310 kts | 182° |
| 2026-04-29 12:45 | 40.50424 | 43.89394 | 13043 ft | 309 kts | 182° |
| 2026-04-29 12:45 | 40.48260 | 43.89344 | 13041 ft | 309 kts | 182° |
| 2026-04-29 12:46 | 40.46098 | 43.89294 | 13036 ft | 309 kts | 182° |
| 2026-04-29 12:46 | 40.43963 | 43.89243 | 13029 ft | 309 kts | 182° |
| 2026-04-29 12:46 | 40.41799 | 43.89191 | 13027 ft | 309 kts | 182° |
| 2026-04-29 12:46 | 40.39670 | 43.89142 | 13020 ft | 309 kts | 182° |
| 2026-04-29 12:47 | 40.37519 | 43.89035 | 13009 ft | 309 kts | 190° |
| 2026-04-29 12:47 | 40.35619 | 43.87856 | 12992 ft | 304 kts | 225° |
| 2026-04-29 12:47 | 40.34494 | 43.85539 | 13052 ft | 301 kts | 255° |
| 2026-04-29 12:47 | 40.34424 | 43.82852 | 13024 ft | 297 kts | 285° |
| 2026-04-29 12:48 | 40.35420 | 43.80550 | 13058 ft | 294 kts | 316° |
| 2026-04-29 12:48 | 40.37121 | 43.79099 | 13112 ft | 294 kts | 332° |
| 2026-04-29 12:48 | 40.39026 | 43.78041 | 13056 ft | 297 kts | 342° |
| 2026-04-29 12:48 | 40.41018 | 43.77428 | 13054 ft | 296 kts | 349° |
| 2026-04-29 12:49 | 40.43066 | 43.77078 | 13049 ft | 296 kts | 354° |
| 2026-04-29 12:49 | 40.45130 | 43.76896 | 13056 ft | 297 kts | 356° |
| 2026-04-29 12:49 | 40.47179 | 43.76811 | 13060 ft | 297 kts | 358° |
| 2026-04-29 12:49 | 40.49262 | 43.76781 | 13059 ft | 297 kts | 359° |
| 2026-04-29 12:50 | 40.51329 | 43.76785 | 13060 ft | 297 kts | 359° |
| 2026-04-29 12:50 | 40.53397 | 43.76806 | 13057 ft | 297 kts | 359° |
| 2026-04-29 12:50 | 40.55448 | 43.76840 | 13062 ft | 297 kts | 360° |
| 2026-04-29 12:50 | 40.57538 | 43.76878 | 13061 ft | 297 kts | 360° |
| 2026-04-29 12:51 | 40.59597 | 43.76919 | 13064 ft | 298 kts | 0° |
| 2026-04-29 12:51 | 40.61661 | 43.76963 | 13048 ft | 298 kts | 0° |
| 2026-04-29 12:51 | 40.63723 | 43.77010 | 13043 ft | 297 kts | 0° |
| 2026-04-29 12:51 | 40.65805 | 43.77060 | 13058 ft | 297 kts | 0° |
| 2026-04-29 12:52 | 40.67867 | 43.77106 | 13059 ft | 298 kts | 0° |
| 2026-04-29 12:52 | 40.69933 | 43.77157 | 13055 ft | 298 kts | 0° |
| 2026-04-29 12:52 | 40.72009 | 43.77208 | 13064 ft | 298 kts | 0° |
| 2026-04-29 12:52 | 40.74089 | 43.77464 | 13028 ft | 301 kts | 17° |
| 2026-04-29 12:53 | 40.75774 | 43.79006 | 13048 ft | 303 kts | 50° |
| 2026-04-29 12:53 | 40.76639 | 43.81560 | 13071 ft | 308 kts | 81° |
| 2026-04-29 12:53 | 40.76414 | 43.84340 | 13071 ft | 311 kts | 111° |
| 2026-04-29 12:53 | 40.75149 | 43.86629 | 13073 ft | 313 kts | 142° |
| 2026-04-29 12:54 | 40.73259 | 43.87989 | 13102 ft | 312 kts | 158° |
| 2026-04-29 12:54 | 40.71193 | 43.88815 | 13065 ft | 311 kts | 169° |
| 2026-04-29 12:54 | 40.69042 | 43.89257 | 13082 ft | 311 kts | 174° |
| 2026-04-29 12:54 | 40.66898 | 43.89478 | 13067 ft | 311 kts | 178° |
| 2026-04-29 12:55 | 40.64731 | 43.89574 | 13065 ft | 309 kts | 180° |
| 2026-04-29 12:55 | 40.62586 | 43.89602 | 13078 ft | 309 kts | 181° |
| 2026-04-29 12:55 | 40.60430 | 43.89593 | 13070 ft | 309 kts | 181° |
| 2026-04-29 12:55 | 40.58279 | 43.89565 | 13067 ft | 309 kts | 181° |
| 2026-04-29 12:56 | 40.56137 | 43.89524 | 13063 ft | 309 kts | 182° |
| 2026-04-29 12:56 | 40.53968 | 43.89476 | 13049 ft | 309 kts | 182° |
| 2026-04-29 12:56 | 40.51839 | 43.89426 | 13048 ft | 309 kts | 182° |
| 2026-04-29 12:56 | 40.49674 | 43.89376 | 13045 ft | 309 kts | 182° |
| 2026-04-29 12:57 | 40.47536 | 43.89326 | 13042 ft | 310 kts | 182° |
| 2026-04-29 12:57 | 40.45372 | 43.89274 | 13037 ft | 310 kts | 182° |
| 2026-04-29 12:57 | 40.43232 | 43.89223 | 13032 ft | 311 kts | 182° |
| 2026-04-29 12:57 | 40.41066 | 43.89173 | 13022 ft | 310 kts | 182° |
| 2026-04-29 12:58 | 40.38903 | 43.89125 | 13015 ft | 310 kts | 182° |
| 2026-04-29 12:58 | 40.36776 | 43.88792 | 12974 ft | 308 kts | 203° |
| 2026-04-29 12:58 | 40.35113 | 43.87127 | 13017 ft | 302 kts | 235° |
| 2026-04-29 12:58 | 40.34348 | 43.84621 | 13040 ft | 299 kts | 265° |
| 2026-04-29 12:59 | 40.34671 | 43.81976 | 13036 ft | 296 kts | 296° |
| 2026-04-29 12:59 | 40.35992 | 43.79955 | 13078 ft | 295 kts | 326° |
| 2026-04-29 12:59 | 40.37797 | 43.78672 | 13115 ft | 297 kts | 335° |
| 2026-04-29 12:59 | 40.39745 | 43.77786 | 13062 ft | 297 kts | 345° |
| 2026-04-29 13:00 | 40.41770 | 43.77277 | 13051 ft | 297 kts | 351° |
| 2026-04-29 13:00 | 40.43811 | 43.77000 | 13046 ft | 296 kts | 355° |
| 2026-04-29 13:00 | 40.45866 | 43.76859 | 13133 ft | 295 kts | 357° |
| 2026-04-29 13:00 | 40.47954 | 43.76796 | 13127 ft | 298 kts | 358° |
| 2026-04-29 13:01 | 40.50008 | 43.76781 | 13126 ft | 297 kts | 359° |
| 2026-04-29 13:01 | 40.52090 | 43.76792 | 13128 ft | 297 kts | 359° |
| 2026-04-29 13:01 | 40.54149 | 43.76817 | 13121 ft | 298 kts | 360° |
| 2026-04-29 13:01 | 40.56206 | 43.76852 | 13132 ft | 298 kts | 360° |
| 2026-04-29 13:02 | 40.58297 | 43.76893 | 13130 ft | 298 kts | 360° |
| 2026-04-29 13:02 | 40.60361 | 43.76937 | 13125 ft | 299 kts | 360° |
| 2026-04-29 13:02 | 40.62451 | 43.76983 | 13112 ft | 299 kts | 360° |
| 2026-04-29 13:02 | 40.64523 | 43.77029 | 13118 ft | 298 kts | 360° |
| 2026-04-29 13:03 | 40.66600 | 43.77129 | 13116 ft | 300 kts | 8° |
| 2026-04-29 13:03 | 40.68460 | 43.78321 | 13089 ft | 303 kts | 43° |
| 2026-04-29 13:03 | 40.69553 | 43.80636 | 13143 ft | 307 kts | 72° |
| 2026-04-29 13:03 | 40.69675 | 43.83475 | 12847 ft | 314 kts | 101° |
| 2026-04-29 13:04 | 40.68734 | 43.86029 | 12476 ft | 313 kts | 129° |
| 2026-04-29 13:04 | 40.67239 | 43.88079 | 12140 ft | 310 kts | 135° |
| 2026-04-29 13:04 | 40.65720 | 43.90017 | 11739 ft | 308 kts | 136° |
| 2026-04-29 13:04 | 40.64171 | 43.91966 | 11453 ft | 301 kts | 136° |
| 2026-04-29 13:05 | 40.62670 | 43.93851 | 11278 ft | 300 kts | 136° |
| 2026-04-29 13:05 | 40.61150 | 43.95761 | 11099 ft | 301 kts | 136° |
| 2026-04-29 13:05 | 40.59643 | 43.97654 | 10920 ft | 300 kts | 136° |
| 2026-04-29 13:05 | 40.58134 | 43.99546 | 10732 ft | 300 kts | 135° |
| 2026-04-29 13:06 | 40.56619 | 44.01440 | 10544 ft | 299 kts | 135° |
| 2026-04-29 13:06 | 40.55118 | 44.03318 | 10486 ft | 297 kts | 135° |
| 2026-04-29 13:06 | 40.53623 | 44.05189 | 10581 ft | 298 kts | 135° |
| 2026-04-29 13:06 | 40.52117 | 44.07075 | 10881 ft | 298 kts | 135° |
| 2026-04-29 13:07 | 40.50613 | 44.08960 | 11342 ft | 306 kts | 135° |
| 2026-04-29 13:07 | 40.49056 | 44.10912 | 11968 ft | 315 kts | 136° |
| 2026-04-29 13:07 | 40.47457 | 44.12915 | 12537 ft | 321 kts | 136° |
| 2026-04-29 13:07 | 40.45857 | 44.14916 | 13010 ft | 316 kts | 136° |
| 2026-04-29 13:08 | 40.44254 | 44.16919 | 12797 ft | 319 kts | 136° |
| 2026-04-29 13:08 | 40.42665 | 44.18900 | 12510 ft | 313 kts | 136° |
| 2026-04-29 13:08 | 40.41091 | 44.20861 | 12055 ft | 313 kts | 136° |
| 2026-04-29 13:08 | 40.39504 | 44.22836 | 11546 ft | 312 kts | 136° |
| 2026-04-29 13:09 | 40.37941 | 44.24782 | 11062 ft | 309 kts | 136° |
| 2026-04-29 13:09 | 40.36397 | 44.26702 | 10595 ft | 306 kts | 135° |
| 2026-04-29 13:09 | 40.34869 | 44.28598 | 10134 ft | 303 kts | 135° |
| 2026-04-29 13:09 | 40.33355 | 44.30479 | 9617 ft | 303 kts | 135° |
| 2026-04-29 13:10 | 40.31826 | 44.32374 | 8894 ft | 297 kts | 135° |
| 2026-04-29 13:10 | 40.30361 | 44.34192 | 8345 ft | 287 kts | 135° |
| 2026-04-29 13:10 | 40.28939 | 44.35956 | 7805 ft | 278 kts | 135° |
| 2026-04-29 13:10 | 40.27583 | 44.37637 | 7464 ft | 264 kts | 135° |
| 2026-04-29 13:11 | 40.26275 | 44.39259 | 7156 ft | 252 kts | 135° |
| 2026-04-29 13:11 | 40.25016 | 44.40822 | 6876 ft | 244 kts | 135° |
| 2026-04-29 13:11 | 40.23814 | 44.42316 | 6747 ft | 238 kts | 135° |
| 2026-04-29 13:11 | 40.22621 | 44.43796 | 6587 ft | 234 kts | 135° |
| 2026-04-29 13:12 | 40.21455 | 44.45245 | 6504 ft | 222 kts | 135° |
| 2026-04-29 13:12 | 40.20380 | 44.46576 | 6385 ft | 209 kts | 135° |
| 2026-04-29 13:12 | 40.19342 | 44.47862 | 6198 ft | 202 kts | 135° |
| 2026-04-29 13:12 | 40.18356 | 44.49085 | 6113 ft | 183 kts | 135° |
| 2026-04-29 13:13 | 40.17467 | 44.50182 | 5938 ft | 172 kts | 135° |
| 2026-04-29 13:13 | 40.16624 | 44.51224 | 5775 ft | 161 kts | 135° |
| 2026-04-29 13:13 | 40.15834 | 44.52198 | 5598 ft | 153 kts | 135° |
| 2026-04-29 13:13 | 40.15075 | 44.53141 | 5446 ft | 147 kts | 135° |
| 2026-04-29 13:14 | 40.14324 | 44.54076 | 5326 ft | 153 kts | 135° |
| 2026-04-29 13:14 | 40.13545 | 44.55043 | 5226 ft | 156 kts | 135° |
| 2026-04-29 13:14 | 40.12923 | 44.56178 | 5084 ft | 155 kts | 101° |
| 2026-04-29 13:14 | 40.12978 | 44.57567 | 5140 ft | 153 kts | 80° |
| 2026-04-29 13:15 | 40.13302 | 44.58886 | 5072 ft | 158 kts | 53° |
| 2026-04-29 13:15 | 40.14228 | 44.59570 | 5087 ft | 158 kts | 6° |
| 2026-04-29 13:15 | 40.15270 | 44.59210 | 5094 ft | 160 kts | 322° |
| 2026-04-29 13:15 | 40.15833 | 44.58004 | 5108 ft | 160 kts | 279° |
| 2026-04-29 13:16 | 40.15755 | 44.56552 | 5128 ft | 160 kts | 259° |
| 2026-04-29 13:16 | 40.15564 | 44.55119 | 5098 ft | 161 kts | 260° |
| 2026-04-29 13:16 | 40.15392 | 44.53661 | 5050 ft | 162 kts | 261° |
| 2026-04-29 13:16 | 40.15255 | 44.52242 | 4897 ft | 154 kts | 263° |
| 2026-04-29 13:17 | 40.15205 | 44.50863 | 4710 ft | 150 kts | 270° |
| 2026-04-29 13:17 | 40.15012 | 44.49550 | 4531 ft | 148 kts | 253° |
| 2026-04-29 13:17 | 40.14894 | 44.48206 | 4331 ft | 149 kts | 261° |
| 2026-04-29 13:17 | 40.14753 | 44.46863 | 4085 ft | 149 kts | 261° |
| 2026-04-29 13:18 | 40.14706 | 44.45533 | 3816 ft | 149 kts | 268° |
| 2026-04-29 13:18 | 40.14738 | 44.44179 | 3533 ft | 148 kts | 268° |
| 2026-04-29 13:18 | 40.14726 | 44.42853 | 3233 ft | 147 kts | 265° |
| 2026-04-29 13:18 | 40.14713 | 44.41519 | 2980 ft | 145 kts | 266° |
| 2026-04-29 13:19 | 40.14708 | 44.40219 | 2837 ft | 137 kts | 266° |
| 2026-04-29 13:19 | 40.14704 | 44.39189 | 2819 ft | 75 kts | 270° |
| 2026-04-29 13:19 | 40.14734 | 44.38799 | 2820 ft | 23 kts | 282° |
| 2026-04-29 13:19 | 40.14722 | 44.38719 | 2820 ft | 5 kts | 152° |
| 2026-04-29 13:20 | 40.14714 | 44.38786 | 2820 ft | 10 kts | 88° |
| 2026-04-29 13:20 | 40.14716 | 44.38929 | 2819 ft | 20 kts | 90° |
| 2026-04-29 13:20 | 40.14712 | 44.39164 | 2819 ft | 30 kts | 90° |
| 2026-04-29 13:20 | 40.14715 | 44.39481 | 2820 ft | 37 kts | 90° |
| 2026-04-29 13:21 | 40.14714 | 44.39832 | 2824 ft | 34 kts | 90° |
| 2026-04-29 13:21 | 40.14798 | 44.40029 | 2827 ft | 22 kts | 360° |
| 2026-04-29 13:21 | 40.14945 | 44.40029 | 2829 ft | 17 kts | 6° |
| 2026-04-29 13:21 | 40.15037 | 44.40035 | 2831 ft | 8 kts | 359° |
| 2026-04-29 13:22 | 40.15048 | 44.40034 | 2832 ft | 0 kts | 359° |
| 2026-04-29 13:22 | 40.15064 | 44.40034 | 2833 ft | 2 kts | 359° |
| 2026-04-29 13:22 | 40.15067 | 44.40034 | 2833 ft | 0 kts | 359° |